AirNav   Everest Fuels
 
 1064 users online  

26XS Tatum Ranch Airport
Blanco, Texas, USA

GOING TO BLANCO?


FAA INFORMATION EFFECTIVE 22 APRIL 2021

Location

FAA Identifier: 26XS
Lat/Long: 30-06-50.7470N 098-27-41.0800W
30-06.845783N 098-27.684667W
30.1140964,-98.4614111
(estimated)
Elevation: 1420 ft. / 433 m (estimated)
Variation: 07E (1985)
From city: 2 miles W of BLANCO, TX
Time zone: UTC -5 (UTC -6 during Standard Time)
Zip code: 78606

Airport Operations

Airport use: Private use. Permission required prior to landing
Control tower: no
ARTCC: HOUSTON CENTER
FSS: SAN ANGELO FLIGHT SERVICE STATION
Attendance: UNATNDD
Wind indicator: yes
Segmented circle: no

Nearby radio navigation aids

VOR radial/distance  VOR name  Freq  Var
STVr106/13.8STONEWALL VORTAC113.8008E
SATr352/28.2SAN ANTONIO VORTAC116.8008E
RNDr341/36.9RANDOLPH VORTAC112.3005E

Airport Services

Runway Information

Runway 1/19

Dimensions: 2000 x 150 ft. / 610 x 46 m
Surface: turf
RUNWAY 1  RUNWAY 19
Traffic pattern: leftleft
Obstructions: none30 ft. plines-m, 250 ft. from runway

Airport Ownership and Management from official FAA records

Ownership: Privately-owned
Owner: CHARLES E TATUM JR
RT 1 BOX 219
BLANCO, TX 78006
Phone 210-833-4888
Manager: CHARLES E TATUM JR
RT 1 BOX 219
BLANCO, TX 78006
Phone 210-833-4888

Airport Operational Statistics

Aircraft based on the field: 4
Single engine airplanes: 4
    

Additional Remarks

FOR CD CTC SAN ANTONIO APCH AT 210-805-5516.

Instrument Procedures

There are no published instrument procedures at 26XS.

Some nearby airports with instrument procedures:

T82 - Gillespie County Airport (24 nm W)
5C1 - Boerne Stage Field Airport (26 nm SW)
3R9 - Lakeway Airpark (28 nm NE)
KBAZ - New Braunfels Regional Airport (33 nm SE)
KERV - Kerrville Municipal Airport/Louis Schreiner Field (33 nm W)
 
Loc | Ops | Rwys | IFR | FBO | Links
Com | Nav | Svcs | Stats | Notes
Area around 26XS (Tatum Ranch Airport)
 
Road maps at: MapQuest Bing Google
 
Aerial photo
No photo
 
Sectional chart

 
Airport distance calculator
Flying to Tatum Ranch Airport? Find the distance to fly.

From to 26XS

Sunrise and sunset
Times for 15-May-2021
 Local
(UTC-5)
 Zulu
(UTC)
Morning civil twilight06:1511:15
Sunrise06:4111:41
Sunset20:1901:19
Evening civil twilight20:4501:45

Current date and time
Zulu (UTC)  15-May-2021 21:51:20
Local (UTC-5)  15-May-2021 16:51:20
 
METAR
KT82 
25nm W 
152135Z AUTO 15008G16KT 120V190 10SM BKN026 BKN031 OVC043 23/15 A3003 RMK AO2 LTG DSNT S T02260153
KDZB 
25nm N 
152135Z AUTO 16011G18KT 10SM SCT029 BKN033 BKN039 26/18 A3003 RMK AO2 T02560175
K5C1 
26nm SW 
152135Z AUTO 13005KT 10SM SCT038 SCT047 BKN060 20/20 A3003 RMK AO1
KBAZ 
32nm SE 
152051Z 13013KT 10SM -RA OVC110 23/20 A2999 RMK AO2 RAB17 PRESFR SLP150 P0000 60000 T02280200 58023
KERV 
33nm W 
152135Z AUTO 15010G16KT 10SM BKN023 OVC034 22/18 A3004 RMK AO2 LTG DSNT SE T02200181
KHYI 
34nm SE 
152056Z 14015KT 10SM FEW029 BKN045 BKN120 23/21 A3002 RMK AO2 SLP160 6//// T02330211 58020 PNO $
KRYW 
34nm NE 
152135Z AUTO 14005KT 10SM SCT026 SCT032 SCT041 24/18 A3004 RMK AO2 T02400183
KSAT 
35nm S 
152120Z 00000KT 10SM -RA FEW007 BKN018 OVC037 22/19 A3001 RMK AO2 P0000 T02170189
KRND 
37nm S 
152119Z AUTO 13007G17KT 10SM -RA FEW007 BKN015 21/21 A2998 RMK AO2 BKN V SCT CIG 009 RWY15R SLP147
KBMQ 
39nm N 
152053Z AUTO 16009G18KT 10SM FEW033 SCT041 25/17 A3006 RMK AO2 SLP162 T02500172 56012
TAF
KSAT 
35nm S 
152030Z 1521/1624 10012KT 6SM RA BKN007 BKN013 OVC110 FM152300 13014G20KT P6SM BKN035 OVC120 FM160200 14014KT P6SM OVC025 FM160600 13012KT P6SM OVC008 FM161000 14011KT P6SM VCSH OVC006 FM161700 15010KT P6SM OVC015
KRND 
37nm S 
151745Z 1517/1622 16012G20KT 9999 VCSH SCT010 BKN015 BKN140 QNH3000INS BECMG 1517/1518 16015G20KT 9999 VCTS SCT025CB BKN035 BKN140 QNH2993INS TEMPO 1518/1523 VRB15G30KT 3200 TSRA FEW010 BKN015CB BECMG 1522/1523 15015G25KT 9999 VCTS SCT035CB BKN140 QNH2995INS BECMG 1602/1603 13010G15KT 9999 NSW BKN011 QNH2997INS BECMG 1605/1606 12012KT 4800 BR OVC006 QNH3001INS BECMG 1608/1609 12009KT 4800 -DZ BR OVC005 QNH2995INS BECMG 1610/1611 11006KT 3200 -SHRA VCTS FEW002 OVC005CB QNH2996INS TEMPO 1611/1622
KAUS 
41nm E 
151739Z 1518/1624 14010KT P6SM FEW030 BKN040 FM151900 16012KT P6SM BKN035 OVC120 FM152100 15012G22KT P6SM VCTS BKN040CB FM160500 15010KT P6SM BKN025 FM160900 15010KT P6SM VCSH OVC007 FM161900 14012KT P6SM BKN015
NOTAMs
Click for the latest NOTAMs
NOTAMs are issued by the DoD/FAA and will open in a separate window not controlled by AirNav.

 

 
 

Would you like to see your business listed on this page?

 If your business provides an interesting product or service to pilots, flight crews, aircraft, or users of the Tatum Ranch Airport, you should consider listing it here.  To start the listing process, click on the button below
 
Add a business
 

Other Pages about Tatum Ranch Airport

Update a link
 
Copyright © AirNav, LLC. All rights reserved. Privacy Policy  Contact